Carnival Splendor — 3EUS — position and weather

sailwx.info

Track history (hours):
 
Tides and Currents Weather Stations Pressure Air Temp Water Temp Dewpoint Dewpoint Depression Visibility Wind Speed Wind Dir Waves Ship Positions

Carnival Splendor

Last reported at 2016-May-01 22:33 UTC. Time now 2016-May-04 11:44 UTC.
Position N 25°42' W 079°58'.

Length 290 m; draft 8.3 m.

Type: Ship. MMSI: 372808000.

Date/timePositionNaut miles runAvg speedWind from/ knotsBaromVisibWave heightAir tempDewpointWater temp
2016-May-01 22:33N 25°42' W 079°58'9 9.5
2016-May-01 21:33N 25°46' W 080°08'2 2.0
2016-May-01 20:22N 25°47' W 080°10'0 0.0
2016-May-01 19:30N 25°47' W 080°10'0 0.0
2016-May-01 18:31N 25°47' W 080°10'0 0.0
2016-May-01 17:31N 25°47' W 080°10'0 0.1
2016-May-01 16:25N 25°47' W 080°10'0 0.0
2016-May-01 15:33N 25°47' W 080°10'0 0.1
2016-May-01 14:27N 25°47' W 080°10'0 0.0
2016-May-01 13:33N 25°47' W 080°10'0 0.0
2016-May-01 12:23N 25°47' W 080°10'0 0.0
2016-May-01 11:23N 25°47' W 080°10'0 0.2
2016-May-01 10:33N 25°47' W 080°10'8 8.3
2016-May-01 09:33N 25°47' W 080°01'8 7.6
2016-May-01 08:33N 25°41' W 079°56'  
2016-Apr-28 21:13N 18°39' W 066°16'1218.2
2016-Apr-28 20:34N 18°30' W 066°08'2 2.4
2016-Apr-28 19:31N 18°28' W 066°07'0 0.0
2016-Apr-28 18:31N 18°28' W 066°07'0 0.0
2016-Apr-28 17:30N 18°28' W 066°07'0 0.0
2016-Apr-28 16:33N 18°28' W 066°07'0 0.0
2016-Apr-28 15:27N 18°28' W 066°07'0 0.0
2016-Apr-28 14:29N 18°28' W 066°07'0 0.0
2016-Apr-28 13:32N 18°28' W 066°07'0 0.0
2016-Apr-28 12:31N 18°28' W 066°07'0 0.0
2016-Apr-28 11:34N 18°28' W 066°07'0 0.3
2016-Apr-28 10:34N 18°28' W 066°07'6 6.0
2016-Apr-28 09:34N 18°33' W 066°06'8 8.2
2016-Apr-28 08:33N 18°40' W 065°60'  
2016-Apr-24 23:33N 26°11' W 079°19'2121.1
2016-Apr-24 22:33N 25°60' W 079°39'2121.1
2016-Apr-24 21:33N 25°49' W 079°59'1010.0
2016-Apr-24 20:33N 25°47' W 080°10'0 0.4
2016-Apr-24 19:33N 25°47' W 080°10'0 0.0
2016-Apr-24 18:27N 25°47' W 080°10'0 0.0
2016-Apr-24 17:32N 25°47' W 080°10'0 0.0
2016-Apr-24 16:29N 25°47' W 080°10'0 0.0
2016-Apr-24 15:32N 25°47' W 080°10'0 0.0
2016-Apr-24 13:25N 25°47' W 080°10'0 0.0
2016-Apr-24 12:33N 25°47' W 080°10'0 0.0
2016-Apr-24 11:33N 25°47' W 080°10'0 0.0
2016-Apr-24 10:33N 25°47' W 080°10'1 0.9
2016-Apr-24 09:33N 25°47' W 080°11'8 8.3
2016-Apr-24 08:33N 25°46' W 080°02'1212.4
2016-Apr-24 07:33N 25°34' W 079°56'  
Track history (hours):
 
Tides and Currents Weather Stations Pressure Air Temp Water Temp Dewpoint Dewpoint Depression Visibility Wind Speed Wind Dir Waves Ship Positions

Carnival Splendor

Last reported at 2016-May-01 22:33 UTC. Time now 2016-May-04 11:44 UTC.
Position N 25°42' W 079°58'.

Length 290 m; draft 8.3 m.

Type: Ship. MMSI: 372808000.

Date/timePositionNaut miles runAvg speedWind from/ knotsBaromVisibWave heightAir tempDewpointWater temp
2016-May-01 22:33N 25°42' W 079°58'9 9.5
2016-May-01 21:33N 25°46' W 080°08'2 2.0
2016-May-01 20:22N 25°47' W 080°10'0 0.0
2016-May-01 19:30N 25°47' W 080°10'0 0.0
2016-May-01 18:31N 25°47' W 080°10'0 0.0
2016-May-01 17:31N 25°47' W 080°10'0 0.1
2016-May-01 16:25N 25°47' W 080°10'0 0.0
2016-May-01 15:33N 25°47' W 080°10'0 0.1
2016-May-01 14:27N 25°47' W 080°10'0 0.0
2016-May-01 13:33N 25°47' W 080°10'0 0.0
2016-May-01 12:23N 25°47' W 080°10'0 0.0
2016-May-01 11:23N 25°47' W 080°10'0 0.2
2016-May-01 10:33N 25°47' W 080°10'8 8.3
2016-May-01 09:33N 25°47' W 080°01'8 7.6
2016-May-01 08:33N 25°41' W 079°56'  
2016-Apr-28 21:13N 18°39' W 066°16'1218.2
2016-Apr-28 20:34N 18°30' W 066°08'2 2.4
2016-Apr-28 19:31N 18°28' W 066°07'0 0.0
2016-Apr-28 18:31N 18°28' W 066°07'0 0.0
2016-Apr-28 17:30N 18°28' W 066°07'0 0.0
2016-Apr-28 16:33N 18°28' W 066°07'0 0.0
2016-Apr-28 15:27N 18°28' W 066°07'0 0.0
2016-Apr-28 14:29N 18°28' W 066°07'0 0.0
2016-Apr-28 13:32N 18°28' W 066°07'0 0.0
2016-Apr-28 12:31N 18°28' W 066°07'0 0.0
2016-Apr-28 11:34N 18°28' W 066°07'0 0.3
2016-Apr-28 10:34N 18°28' W 066°07'6 6.0
2016-Apr-28 09:34N 18°33' W 066°06'8 8.2
2016-Apr-28 08:33N 18°40' W 065°60'  
2016-Apr-24 23:33N 26°11' W 079°19'2121.1
2016-Apr-24 22:33N 25°60' W 079°39'2121.1
2016-Apr-24 21:33N 25°49' W 079°59'1010.0
2016-Apr-24 20:33N 25°47' W 080°10'0 0.4
2016-Apr-24 19:33N 25°47' W 080°10'0 0.0
2016-Apr-24 18:27N 25°47' W 080°10'0 0.0
2016-Apr-24 17:32N 25°47' W 080°10'0 0.0
2016-Apr-24 16:29N 25°47' W 080°10'0 0.0
2016-Apr-24 15:32N 25°47' W 080°10'0 0.0
2016-Apr-24 13:25N 25°47' W 080°10'0 0.0
2016-Apr-24 12:33N 25°47' W 080°10'0 0.0
2016-Apr-24 11:33N 25°47' W 080°10'0 0.0
2016-Apr-24 10:33N 25°47' W 080°10'1 0.9
2016-Apr-24 09:33N 25°47' W 080°11'8 8.3
2016-Apr-24 08:33N 25°46' W 080°02'1212.4
2016-Apr-24 07:33N 25°34' W 079°56'  

Dump ship's entire track history